createdAt,value
2023-05-22T00:00:28.672Z,37.15
2023-05-22T00:02:55.806Z,44.93
2023-05-22T00:05:22.616Z,45.88
2023-05-22T00:07:49.246Z,46.25
2023-05-22T00:10:15.802Z,43.85
2023-05-22T00:12:42.619Z,35.83
2023-05-22T00:15:09.439Z,31.90
2023-05-22T00:17:36.642Z,57.28
2023-05-22T00:20:06.054Z,32.90
2023-05-22T00:22:35.630Z,41.80
2023-05-22T00:25:05.912Z,38.15
2023-05-22T00:27:33.062Z,42.67
2023-05-22T00:30:00.015Z,35.35
2023-05-22T00:32:26.842Z,35.92
2023-05-22T00:34:53.546Z,38.72
2023-05-22T00:37:20.712Z,35.83
2023-05-22T00:39:47.297Z,37.10
2023-05-22T00:42:13.956Z,34.35
2023-05-22T00:44:41.874Z,38.25
2023-05-22T00:47:08.616Z,32.85
2023-05-22T00:49:35.470Z,40.53
2023-05-22T00:52:02.819Z,33.63
2023-05-22T00:54:30.950Z,31.23
2023-05-22T00:56:57.460Z,34.55
2023-05-22T00:59:24.198Z,34.35
2023-05-22T01:01:51.378Z,32.83
2023-05-22T01:04:18.688Z,33.80
2023-05-22T01:06:47.797Z,38.60
2023-05-22T01:09:17.303Z,42.20
2023-05-22T01:11:49.391Z,38.63
2023-05-22T01:14:25.736Z,38.65
2023-05-22T01:17:08.791Z,43.73
2023-05-22T01:19:54.363Z,34.83
2023-05-22T01:22:30.324Z,38.88
2023-05-22T01:25:13.013Z,41.38
2023-05-22T01:27:49.607Z,48.50
2023-05-22T01:30:26.950Z,43.43
2023-05-22T01:32:56.657Z,44.80
2023-05-22T01:35:23.889Z,43.47
2023-05-22T01:37:51.428Z,41.50
2023-05-22T01:40:18.350Z,49.75
2023-05-22T01:42:45.525Z,51.17
2023-05-22T01:45:12.328Z,45.13
2023-05-22T01:47:38.917Z,52.25
2023-05-22T01:50:05.998Z,45.67
2023-05-22T01:52:41.223Z,43.38
2023-05-22T01:55:18.736Z,45.00
2023-05-22T01:57:57.182Z,46.03
2023-05-22T02:00:24.668Z,44.13
2023-05-22T02:02:57.224Z,46.13
2023-05-22T02:05:25.036Z,44.60
2023-05-22T02:07:52.880Z,46.87
2023-05-22T02:10:20.579Z,48.03
2023-05-22T02:12:47.203Z,47.63
2023-05-22T02:15:14.296Z,51.20
2023-05-22T02:17:40.994Z,55.22
2023-05-22T02:20:14.505Z,56.77
2023-05-22T02:22:44.948Z,53.00
2023-05-22T02:25:14.853Z,51.63
2023-05-22T02:27:43.003Z,50.58
2023-05-22T02:30:09.918Z,45.92
2023-05-22T02:32:36.658Z,65.87
2023-05-22T02:35:03.453Z,50.22
2023-05-22T02:37:30.042Z,56.22
2023-05-22T02:39:57.509Z,63.20
2023-05-22T02:42:24.168Z,57.25
2023-05-22T02:44:50.697Z,71.03
2023-05-22T02:47:17.222Z,55.25
2023-05-22T02:49:43.914Z,48.85
2023-05-22T02:52:10.495Z,57.13
2023-05-22T02:54:37.031Z,65.78
2023-05-22T02:57:04.155Z,47.43
2023-05-22T02:59:31.720Z,50.97
2023-05-22T03:01:58.356Z,55.85
2023-05-22T03:04:24.954Z,54.10
2023-05-22T03:06:51.566Z,51.20
2023-05-22T03:09:20.221Z,51.33
2023-05-22T03:11:47.155Z,54.60
2023-05-22T03:14:13.646Z,60.63
2023-05-22T03:16:40.098Z,49.42
2023-05-22T03:19:16.445Z,54.10
2023-05-22T03:21:46.019Z,49.83
2023-05-22T03:24:15.125Z,45.03
2023-05-22T03:26:42.074Z,54.58
2023-05-22T03:29:08.617Z,49.60
2023-05-22T03:31:36.507Z,46.63
2023-05-22T03:34:03.718Z,51.00
2023-05-22T03:36:34.075Z,55.63
2023-05-22T03:39:00.963Z,48.58
2023-05-22T03:41:27.661Z,58.28
2023-05-22T03:43:54.211Z,48.92
2023-05-22T03:46:20.826Z,52.40
2023-05-22T03:48:47.532Z,57.63
2023-05-22T03:51:14.099Z,60.80
2023-05-22T03:53:40.672Z,60.88
2023-05-22T03:56:07.431Z,64.78
2023-05-22T03:58:34.091Z,58.37
2023-05-22T04:01:01.323Z,70.82
2023-05-22T04:03:28.384Z,81.32
2023-05-22T04:05:55.061Z,83.10
2023-05-22T04:08:21.520Z,89.22
2023-05-22T04:10:48.988Z,81.37
2023-05-22T04:13:16.156Z,87.22
2023-05-22T04:15:45.913Z,86.70
2023-05-22T04:18:12.776Z,86.30
2023-05-22T04:20:39.615Z,84.13
2023-05-22T04:23:07.424Z,73.83
2023-05-22T04:25:34.484Z,82.97
2023-05-22T04:28:04.314Z,87.50
2023-05-22T04:30:36.173Z,95.07
2023-05-22T04:33:03.570Z,93.95
2023-05-22T04:35:30.285Z,110.33
2023-05-22T04:37:57.160Z,93.93
2023-05-22T04:40:23.876Z,90.95
2023-05-22T04:42:50.374Z,109.07
2023-05-22T04:45:19.459Z,97.05
2023-05-22T04:47:45.992Z,91.57
2023-05-22T04:50:14.439Z,108.07
2023-05-22T04:52:40.910Z,88.97
2023-05-22T04:55:08.572Z,108.35
2023-05-22T04:57:35.105Z,108.47
2023-05-22T05:00:02.037Z,95.73
2023-05-22T05:02:28.608Z,108.20
2023-05-22T05:04:55.275Z,117.82
2023-05-22T05:07:21.764Z,97.80
2023-05-22T05:09:48.405Z,106.60
2023-05-22T05:12:15.596Z,98.57
2023-05-22T05:14:42.073Z,81.25
2023-05-22T05:17:08.695Z,86.25
2023-05-22T05:19:36.861Z,82.60
2023-05-22T05:22:03.875Z,82.45
2023-05-22T05:24:30.384Z,77.77
2023-05-22T05:26:56.959Z,90.40
2023-05-22T05:29:23.495Z,89.72
2023-05-22T05:31:50.072Z,89.03
2023-05-22T05:34:16.663Z,81.10
2023-05-22T05:36:43.991Z,72.80
2023-05-22T05:39:10.551Z,83.15
2023-05-22T05:41:37.099Z,71.85
2023-05-22T05:44:03.793Z,86.57
2023-05-22T05:46:30.579Z,80.88
2023-05-22T05:48:58.031Z,83.30
2023-05-22T05:51:24.564Z,77.13
2023-05-22T05:53:51.367Z,83.55
2023-05-22T05:56:18.032Z,77.65
2023-05-22T05:58:44.538Z,87.55
2023-05-22T06:01:11.926Z,88.27
2023-05-22T06:03:38.709Z,86.53
2023-05-22T06:06:06.185Z,86.18
2023-05-22T06:08:34.544Z,88.70
2023-05-22T06:11:01.627Z,87.38
2023-05-22T06:13:28.218Z,88.33
2023-05-22T06:15:54.787Z,77.47
2023-05-22T06:18:21.452Z,80.70
2023-05-22T06:20:48.067Z,82.57
2023-05-22T06:23:14.767Z,78.30
2023-05-22T06:25:41.260Z,79.83
2023-05-22T06:28:07.707Z,85.95
2023-05-22T06:30:40.090Z,87.00
2023-05-22T06:33:08.181Z,85.35
2023-05-22T06:35:35.017Z,73.45
2023-05-22T06:38:02.105Z,69.70
2023-05-22T06:40:28.861Z,78.75
2023-05-22T06:42:55.431Z,77.32
2023-05-22T06:45:22.061Z,85.93
2023-05-22T06:47:51.718Z,80.70
2023-05-22T06:50:18.239Z,71.03
2023-05-22T06:52:44.693Z,68.30
2023-05-22T06:55:11.271Z,97.70
2023-05-22T06:57:37.834Z,82.65
2023-05-22T07:00:08.758Z,64.45
2023-05-22T07:02:35.670Z,66.07
2023-05-22T07:05:02.241Z,64.15
2023-05-22T07:07:29.064Z,57.13
2023-05-22T07:09:55.580Z,54.95
2023-05-22T07:12:26.043Z,68.70
2023-05-22T07:14:52.709Z,53.70
2023-05-22T07:17:20.606Z,64.32
2023-05-22T07:19:47.462Z,56.78
2023-05-22T07:22:14.316Z,60.78
2023-05-22T07:24:40.745Z,55.58
2023-05-22T07:27:07.483Z,58.27
2023-05-22T07:29:34.131Z,55.80
2023-05-22T07:32:00.739Z,58.28
2023-05-22T07:34:34.329Z,58.42
2023-05-22T07:37:01.431Z,55.72
2023-05-22T07:39:28.066Z,54.83
2023-05-22T07:41:56.066Z,48.88
2023-05-22T07:44:23.663Z,49.85
2023-05-22T07:46:50.154Z,52.38
2023-05-22T07:49:19.913Z,53.05
2023-05-22T07:51:47.219Z,58.03
2023-05-22T07:54:14.380Z,55.63
2023-05-22T07:56:41.719Z,58.63
2023-05-22T07:59:09.549Z,55.08
2023-05-22T08:01:38.040Z,53.20
2023-05-22T08:04:05.642Z,51.27
2023-05-22T08:06:32.542Z,58.15
2023-05-22T08:09:00.215Z,53.75
2023-05-22T08:11:26.766Z,49.15
2023-05-22T08:13:53.188Z,51.97
2023-05-22T08:16:19.810Z,52.50
2023-05-22T08:18:46.408Z,49.78
2023-05-22T08:21:12.999Z,56.85
2023-05-22T08:23:39.560Z,47.30
2023-05-22T08:26:08.726Z,63.20
2023-05-22T08:28:35.248Z,58.40
2023-05-22T08:31:01.811Z,59.20
2023-05-22T08:33:28.309Z,49.20
2023-05-22T08:35:54.852Z,47.35
2023-05-22T08:38:22.198Z,47.13
2023-05-22T08:40:51.943Z,54.87
2023-05-22T08:43:20.702Z,62.67
2023-05-22T08:46:00.192Z,56.20
2023-05-22T08:48:29.558Z,58.30
2023-05-22T08:50:58.301Z,50.08
2023-05-22T08:53:26.693Z,52.07
2023-05-22T08:55:53.576Z,54.35
2023-05-22T08:58:20.994Z,47.85
2023-05-22T09:00:47.997Z,48.90
2023-05-22T09:03:15.314Z,55.50
2023-05-22T09:05:42.059Z,53.47
2023-05-22T09:08:19.752Z,54.78
2023-05-22T09:10:47.406Z,45.17
2023-05-22T09:13:23.732Z,48.47
2023-05-22T09:15:50.312Z,41.42
2023-05-22T09:18:16.822Z,51.50
2023-05-22T09:20:43.558Z,42.78
2023-05-22T09:23:18.050Z,40.03
2023-05-22T09:25:45.150Z,48.20
2023-05-22T09:28:12.720Z,41.75
2023-05-22T09:30:39.885Z,45.23
2023-05-22T09:33:09.514Z,42.33
2023-05-22T09:35:36.884Z,34.60
2023-05-22T09:38:04.016Z,41.75
2023-05-22T09:40:34.902Z,48.45
2023-05-22T09:43:01.875Z,43.80
2023-05-22T09:45:28.475Z,36.55
2023-05-22T09:47:55.713Z,37.15
2023-05-22T09:50:22.395Z,40.85
2023-05-22T09:52:50.874Z,34.92
2023-05-22T09:55:19.145Z,44.77
2023-05-22T09:57:46.523Z,35.10
2023-05-22T10:00:15.577Z,44.42
2023-05-22T10:02:44.347Z,34.22
2023-05-22T10:05:12.155Z,38.92
2023-05-22T10:07:57.493Z,40.87
2023-05-22T10:10:27.064Z,37.35
2023-05-22T10:13:06.489Z,33.22
2023-05-22T10:15:33.246Z,39.88
2023-05-22T10:18:00.771Z,39.08
2023-05-22T10:20:28.824Z,34.87
2023-05-22T10:22:55.678Z,39.78
2023-05-22T10:25:22.788Z,43.13
2023-05-22T10:27:51.834Z,34.25
2023-05-22T10:30:29.167Z,44.97
2023-05-22T10:32:55.765Z,37.53
2023-05-22T10:35:43.551Z,39.83
2023-05-22T10:38:28.760Z,37.22
2023-05-22T10:40:55.704Z,44.40
2023-05-22T10:43:22.926Z,39.13
2023-05-22T10:45:49.647Z,35.87
2023-05-22T10:48:21.693Z,44.60
2023-05-22T10:50:52.981Z,40.65
2023-05-22T10:53:23.634Z,39.90
2023-05-22T10:55:54.177Z,40.88
2023-05-22T10:58:30.564Z,41.63
2023-05-22T11:01:13.590Z,44.72
2023-05-22T11:03:55.387Z,46.78
2023-05-22T11:06:37.418Z,34.22
2023-05-22T11:09:22.862Z,41.60
2023-05-22T11:12:28.486Z,43.15
2023-05-22T11:14:55.259Z,47.95
2023-05-22T11:17:31.670Z,39.57
2023-05-22T11:20:02.670Z,45.88
2023-05-22T11:22:30.354Z,44.70
2023-05-22T11:24:56.922Z,39.53
2023-05-22T11:27:23.735Z,40.25
2023-05-22T11:29:50.854Z,37.20
2023-05-22T11:32:20.965Z,44.63
2023-05-22T11:34:47.781Z,46.03
2023-05-22T11:37:14.397Z,41.08
2023-05-22T11:39:40.825Z,42.65
2023-05-22T11:42:07.456Z,42.60
2023-05-22T11:44:33.946Z,53.90
2023-05-22T11:47:00.807Z,49.28
2023-05-22T11:49:27.617Z,38.33
2023-05-22T11:51:54.271Z,46.03
2023-05-22T11:54:22.230Z,34.93
2023-05-22T11:56:48.972Z,48.72
2023-05-22T11:59:16.407Z,48.40
2023-05-22T12:01:42.820Z,40.63
2023-05-22T12:04:09.307Z,44.33
2023-05-22T12:06:36.020Z,37.07
2023-05-22T12:09:03.026Z,45.20
2023-05-22T12:11:34.540Z,42.45
2023-05-22T12:14:01.998Z,41.20
2023-05-22T12:16:28.581Z,42.63
2023-05-22T12:18:55.218Z,38.13
2023-05-22T12:21:22.027Z,42.25
2023-05-22T12:23:50.348Z,41.83
2023-05-22T12:26:17.388Z,41.67
2023-05-22T12:28:44.250Z,35.58
2023-05-22T12:31:10.915Z,40.97
2023-05-22T12:33:39.524Z,43.25
2023-05-22T12:36:09.489Z,42.05
2023-05-22T12:38:37.495Z,39.92
2023-05-22T12:41:04.165Z,41.67
2023-05-22T12:43:30.720Z,38.20
2023-05-22T12:45:57.442Z,35.40
2023-05-22T12:48:23.997Z,40.45
2023-05-22T12:50:50.774Z,43.05
2023-05-22T12:53:17.430Z,39.67
2023-05-22T12:55:44.109Z,43.27
2023-05-22T12:58:10.642Z,46.88
2023-05-22T13:00:37.201Z,43.42
2023-05-22T13:03:04.270Z,48.50
2023-05-22T13:05:31.009Z,38.25
2023-05-22T13:07:57.698Z,44.00
2023-05-22T13:10:24.183Z,41.67
2023-05-22T13:12:51.654Z,41.63
2023-05-22T13:15:18.629Z,38.00
2023-05-22T13:17:45.880Z,42.90
2023-05-22T13:20:12.935Z,39.10
2023-05-22T13:22:40.380Z,41.30
2023-05-22T13:25:07.099Z,39.72
2023-05-22T13:27:34.106Z,37.90
2023-05-22T13:30:00.684Z,45.40
2023-05-22T13:32:27.276Z,44.43
2023-05-22T13:34:53.940Z,47.85
2023-05-22T13:37:20.693Z,40.15
2023-05-22T13:39:47.748Z,42.00
2023-05-22T13:42:14.418Z,43.63
2023-05-22T13:44:40.997Z,41.00
2023-05-22T13:47:07.730Z,48.85
2023-05-22T13:49:34.536Z,41.13
2023-05-22T13:52:01.118Z,36.88
2023-05-22T13:54:27.652Z,45.08
2023-05-22T13:56:54.268Z,41.83
2023-05-22T13:59:20.706Z,40.70
2023-05-22T14:01:47.223Z,49.83
2023-05-22T14:04:13.665Z,41.28
2023-05-22T14:06:40.351Z,42.92
2023-05-22T14:09:08.947Z,42.97
2023-05-22T14:11:35.685Z,42.42
2023-05-22T14:14:02.294Z,46.33
2023-05-22T14:16:29.086Z,39.60
2023-05-22T14:18:55.914Z,39.67
2023-05-22T14:21:22.450Z,38.70
2023-05-22T14:23:48.889Z,36.97
2023-05-22T14:26:15.654Z,36.05
2023-05-22T14:28:42.504Z,33.40
2023-05-22T14:31:09.032Z,38.63
2023-05-22T14:33:35.909Z,29.97
2023-05-22T14:36:02.642Z,40.42
2023-05-22T14:38:33.806Z,33.58
2023-05-22T14:41:01.072Z,36.72
2023-05-22T14:43:27.541Z,32.08
2023-05-22T14:45:54.699Z,33.17
2023-05-22T14:48:26.298Z,34.72
2023-05-22T14:50:55.916Z,35.55
2023-05-22T14:53:22.502Z,35.88
2023-05-22T14:55:49.292Z,31.75
2023-05-22T14:58:15.963Z,37.03
2023-05-22T15:00:43.152Z,34.58
2023-05-22T15:03:10.144Z,34.22
2023-05-22T15:05:36.738Z,34.40
2023-05-22T15:08:03.546Z,37.97
2023-05-22T15:10:30.083Z,37.97
2023-05-22T15:12:56.726Z,38.88
2023-05-22T15:15:23.466Z,36.22
2023-05-22T15:17:50.033Z,34.25
2023-05-22T15:20:16.901Z,42.90
2023-05-22T15:22:43.485Z,36.67
2023-05-22T15:25:17.259Z,41.80
2023-05-22T15:27:43.950Z,38.47
2023-05-22T15:30:10.872Z,36.63
2023-05-22T15:32:37.777Z,36.22
2023-05-22T15:35:05.843Z,33.53
2023-05-22T15:37:34.070Z,34.28
2023-05-22T15:40:01.714Z,39.03
2023-05-22T15:42:28.479Z,35.92
2023-05-22T15:44:55.438Z,31.58
2023-05-22T15:47:21.947Z,28.93
2023-05-22T15:49:48.526Z,26.10
2023-05-22T15:52:15.096Z,19.40
2023-05-22T15:54:41.730Z,29.23
2023-05-22T15:57:08.281Z,24.13
2023-05-22T15:59:34.944Z,19.73
2023-05-22T16:02:01.470Z,20.77
2023-05-22T16:04:28.022Z,21.98
2023-05-22T16:06:54.525Z,18.63
2023-05-22T16:09:21.098Z,21.55
2023-05-22T16:11:47.780Z,19.73
2023-05-22T16:14:14.453Z,18.58
2023-05-22T16:16:41.122Z,17.85
2023-05-22T16:19:07.925Z,20.00
2023-05-22T16:21:34.445Z,21.27
2023-05-22T16:24:01.187Z,23.27
2023-05-22T16:26:27.779Z,21.02
2023-05-22T16:28:54.309Z,22.20
2023-05-22T16:31:20.825Z,21.75
2023-05-22T16:33:47.572Z,20.17
2023-05-22T16:36:14.011Z,18.93
2023-05-22T16:38:40.702Z,21.75
2023-05-22T16:41:07.204Z,16.45
2023-05-22T16:43:33.813Z,17.27
2023-05-22T16:46:00.288Z,16.92
2023-05-22T16:48:26.847Z,22.73
2023-05-22T16:50:53.377Z,13.38
2023-05-22T16:53:19.997Z,15.65
2023-05-22T16:55:46.586Z,15.18
2023-05-22T16:58:14.151Z,9.98
2023-05-22T17:00:41.489Z,10.27
2023-05-22T17:03:08.972Z,11.90
2023-05-22T17:05:36.356Z,10.73
2023-05-22T17:08:03.402Z,10.40
2023-05-22T17:10:31.928Z,10.77
2023-05-22T17:12:58.409Z,16.97
2023-05-22T17:15:24.990Z,13.52
2023-05-22T17:17:51.648Z,15.27
2023-05-22T17:20:18.409Z,12.02
2023-05-22T17:22:45.005Z,10.77
2023-05-22T17:25:11.624Z,13.70
2023-05-22T17:27:39.373Z,13.07
2023-05-22T17:30:07.744Z,9.98
2023-05-22T17:32:34.704Z,10.90
2023-05-22T17:35:02.038Z,10.52
2023-05-22T17:37:28.468Z,10.73
2023-05-22T17:39:55.013Z,8.93
2023-05-22T17:42:21.490Z,12.35
2023-05-22T17:44:48.110Z,10.35
2023-05-22T17:47:14.592Z,11.90
2023-05-22T17:49:41.115Z,12.77
2023-05-22T17:52:08.811Z,11.05
2023-05-22T17:54:35.792Z,13.35
2023-05-22T17:57:04.215Z,11.63
2023-05-22T17:59:31.214Z,10.77
2023-05-22T18:01:57.774Z,13.23
2023-05-22T18:04:24.339Z,11.05
2023-05-22T18:06:50.968Z,15.13
2023-05-22T18:09:17.510Z,13.40
2023-05-22T18:11:44.086Z,13.40
2023-05-22T18:14:10.764Z,11.93
2023-05-22T18:16:37.298Z,10.68
2023-05-22T18:19:03.979Z,10.98
2023-05-22T18:21:30.821Z,12.73
2023-05-22T18:23:57.605Z,10.77
2023-05-22T18:26:24.154Z,15.37
2023-05-22T18:28:50.677Z,14.77
2023-05-22T18:31:17.225Z,13.95
2023-05-22T18:33:45.183Z,11.43
2023-05-22T18:36:12.178Z,13.98
2023-05-22T18:38:38.909Z,14.47
2023-05-22T18:41:06.547Z,12.40
2023-05-22T18:43:33.310Z,12.07
2023-05-22T18:45:59.802Z,13.57
2023-05-22T18:48:27.369Z,15.30
2023-05-22T18:50:54.425Z,12.93
2023-05-22T18:53:22.174Z,13.70
2023-05-22T18:55:48.760Z,15.40
2023-05-22T18:58:15.567Z,17.10
2023-05-22T19:00:42.355Z,17.13
2023-05-22T19:03:11.442Z,15.10
2023-05-22T19:05:38.167Z,12.65
2023-05-22T19:08:05.024Z,20.38
2023-05-22T19:10:31.772Z,13.70
2023-05-22T19:12:58.355Z,14.77
2023-05-22T19:15:26.154Z,12.77
2023-05-22T19:17:52.783Z,13.50
2023-05-22T19:20:19.525Z,18.33
2023-05-22T19:22:46.171Z,16.95
2023-05-22T19:25:13.000Z,33.78
2023-05-22T19:27:39.680Z,23.17
2023-05-22T19:30:06.652Z,27.60
2023-05-22T19:32:33.278Z,18.98
2023-05-22T19:34:59.868Z,20.90
2023-05-22T19:37:26.469Z,25.05
2023-05-22T19:39:54.101Z,23.30
2023-05-22T19:42:20.685Z,27.40
2023-05-22T19:44:47.237Z,23.00
2023-05-22T19:47:13.807Z,24.33
2023-05-22T19:49:40.678Z,22.17
2023-05-22T19:52:07.451Z,20.17
2023-05-22T19:54:34.666Z,27.85
2023-05-22T19:57:01.397Z,22.02
2023-05-22T19:59:27.898Z,22.65
2023-05-22T20:01:54.492Z,29.15
2023-05-22T20:04:21.596Z,26.37
2023-05-22T20:06:48.553Z,21.05
2023-05-22T20:09:15.462Z,23.88
2023-05-22T20:11:41.984Z,28.77
2023-05-22T20:14:08.683Z,27.45
2023-05-22T20:16:35.390Z,27.03
2023-05-22T20:19:04.052Z,28.25
2023-05-22T20:21:31.006Z,30.15
2023-05-22T20:23:57.635Z,29.17
2023-05-22T20:26:24.132Z,26.08
2023-05-22T20:28:50.985Z,24.10
2023-05-22T20:31:17.964Z,29.52
2023-05-22T20:33:44.552Z,29.50
2023-05-22T20:36:12.061Z,26.02
2023-05-22T20:38:38.670Z,30.33
2023-05-22T20:41:08.724Z,35.40
2023-05-22T20:43:36.274Z,34.75
2023-05-22T20:46:03.217Z,37.92
2023-05-22T20:48:29.890Z,32.90
2023-05-22T20:50:56.544Z,28.63
2023-05-22T20:53:24.540Z,35.87
2023-05-22T20:55:53.310Z,35.92
2023-05-22T20:58:20.072Z,40.28
2023-05-22T21:00:49.533Z,48.60
2023-05-22T21:03:17.059Z,35.55
2023-05-22T21:05:43.595Z,42.73
2023-05-22T21:08:10.377Z,52.63
2023-05-22T21:10:36.875Z,44.80
2023-05-22T21:13:03.442Z,48.58
2023-05-22T21:15:29.906Z,43.70
2023-05-22T21:17:56.381Z,36.37
2023-05-22T21:20:23.041Z,36.63
2023-05-22T21:22:49.623Z,39.28
2023-05-22T21:25:16.098Z,39.40
2023-05-22T21:27:42.618Z,43.28
2023-05-22T21:30:12.232Z,41.90
2023-05-22T21:32:38.896Z,39.88
2023-05-22T21:35:05.604Z,39.50
2023-05-22T21:37:32.150Z,42.22
2023-05-22T21:39:58.678Z,35.15
2023-05-22T21:42:26.179Z,36.67
2023-05-22T21:44:52.886Z,36.28
2023-05-22T21:47:19.557Z,43.85
2023-05-22T21:49:46.186Z,39.00
2023-05-22T21:52:12.909Z,39.13
2023-05-22T21:54:39.763Z,46.07
2023-05-22T21:57:06.602Z,43.70
2023-05-22T21:59:33.235Z,44.58
2023-05-22T22:01:59.795Z,38.03
2023-05-22T22:04:26.287Z,36.78
2023-05-22T22:06:52.823Z,47.00
2023-05-22T22:09:19.341Z,28.98
2023-05-22T22:11:45.939Z,32.42
2023-05-22T22:14:12.467Z,36.75
2023-05-22T22:16:40.784Z,32.38
2023-05-22T22:19:07.389Z,35.90
2023-05-22T22:21:34.252Z,26.75
2023-05-22T22:24:01.033Z,37.15
2023-05-22T22:26:30.811Z,32.83
2023-05-22T22:28:57.705Z,35.35
2023-05-22T22:31:24.651Z,30.27
2023-05-22T22:33:51.189Z,29.58
2023-05-22T22:36:17.749Z,26.35
2023-05-22T22:38:44.262Z,33.80
2023-05-22T22:41:11.160Z,34.33
2023-05-22T22:43:37.793Z,32.10
2023-05-22T22:46:04.370Z,30.77
2023-05-22T22:48:30.977Z,34.72
2023-05-22T22:50:58.220Z,29.88
2023-05-22T22:53:24.738Z,39.58
2023-05-22T22:55:56.129Z,37.47
2023-05-22T22:58:22.889Z,41.42
2023-05-22T23:00:49.488Z,55.97
2023-05-22T23:03:16.262Z,76.50
2023-05-22T23:05:43.070Z,82.00
2023-05-22T23:08:09.816Z,60.93
2023-05-22T23:10:36.453Z,70.13
2023-05-22T23:13:02.894Z,54.00
2023-05-22T23:15:29.696Z,44.90
2023-05-22T23:17:56.422Z,45.65
2023-05-22T23:20:22.990Z,57.60
2023-05-22T23:22:49.595Z,59.60
2023-05-22T23:25:16.287Z,64.10
2023-05-22T23:27:42.834Z,46.03
2023-05-22T23:30:09.537Z,48.63
2023-05-22T23:32:36.315Z,67.80
2023-05-22T23:35:02.952Z,122.85
2023-05-22T23:37:29.427Z,95.30
2023-05-22T23:39:56.088Z,118.63
2023-05-22T23:42:22.582Z,55.28
2023-05-22T23:44:49.189Z,30.83
2023-05-22T23:47:16.851Z,29.23
2023-05-22T23:49:43.547Z,26.98
2023-05-22T23:52:12.071Z,46.28
2023-05-22T23:54:38.805Z,25.40
2023-05-22T23:57:05.484Z,25.33
2023-05-22T23:59:31.933Z,26.67
